Aktuelle Daten der privaten Wetterstation - Betreiber Werner Braun

Wetterdaten: aktuell Freitag, 20.09.2019 20:24
Datum Zeit Temp. A. Temp -25cm Temp +5cm Temp +2m Feuchte A. Bod.Feu-25cm Bod.Feu-10cm Luftdruck Regen Wind Richtung Richtung Sonnenschein Regendauer ET Solar Taupunkt Windchill Windben
20.09.2019 20:24 10,4 C 17,8 C 11,7 C 10,6 C 65 % 62 cb 27 cb 1025,3 hPa 0,0 l/m 0,0 km/h (0 Bft) S-SO 147 0 min 0 min 0,051 mm 0 W/m 4,1 C 10,4 C 1,6 km/h (1 Bft)
20.09.2019 19:24 14,3 C 17,8 C 13,9 C 13,9 C 47 % 61 cb 27 cb 1025,1 hPa 0,0 l/m 3,0 km/h (1 Bft) O-SO 120 15 min 0 min 0,102 mm 8 W/m 3,1 C 14,3 C 6,4 km/h (2 Bft)
20.09.2019 18:24 15,6 C 17,2 C 15,6 C 15,6 C 42 % 60 cb 27 cb 1025,0 hPa 0,0 l/m 7,1 km/h (2 Bft) O-NO 65 51 min 0 min 0,203 mm 80 W/m 2,7 C 15,6 C 14,5 km/h (3 Bft)
20.09.2019 17:24 16,7 C 17,2 C 17,2 C 16,7 C 36 % 60 cb 28 cb 1025,0 hPa 0,0 l/m 12,1 km/h (2 Bft) O-NO 74 60 min 0 min 0,305 mm 182 W/m 1,6 C 16,7 C 19,3 km/h (3 Bft)
20.09.2019 16:24 17,1 C 16,7 C 22,2 C 19,4 C 34 % 60 cb 28 cb 1025,3 hPa 0,0 l/m 12,1 km/h (2 Bft) N-NO 29 60 min 0 min 0,381 mm 441 W/m 1,1 C 17,1 C 17,7 km/h (3 Bft)
20.09.2019 15:24 17,4 C 16,7 C 22,8 C 20,0 C 35 % 60 cb 25 cb 1025,7 hPa 0,0 l/m 7,7 km/h (2 Bft) N-NO 20 57 min 0 min 0,381 mm 603 W/m 1,8 C 17,4 C 16,1 km/h (3 Bft)
20.09.2019 14:24 16,5 C 16,7 C 20,0 C 18,9 C 38 % 61 cb 22 cb 1026,1 hPa 0,0 l/m 6,7 km/h (2 Bft) N-NO 17 60 min 0 min 0,406 mm 666 W/m 2,1 C 16,5 C 11,3 km/h (2 Bft)
20.09.2019 13:24 15,4 C 16,7 C 18,9 C 18,9 C 49 % 62 cb 21 cb 1026,5 hPa 0,0 l/m 6,5 km/h (2 Bft) NO 37 60 min 0 min 0,407 mm 723 W/m 4,7 C 15,4 C 14,5 km/h (3 Bft)
20.09.2019 12:24 14,7 C 16,7 C 17,2 C 16,7 C 43 % 62 cb 20 cb 1027,1 hPa 0,0 l/m 11,9 km/h (2 Bft) O-NO 76 60 min 0 min 0,355 mm 684 W/m 2,3 C 14,7 C 17,7 km/h (3 Bft)
20.09.2019 11:24 14,1 C 16,7 C 15,0 C 16,1 C 47 % 62 cb 21 cb 1027,5 hPa 0,0 l/m 6,5 km/h (2 Bft) O-SO 115 60 min 0 min 0,254 mm 619 W/m 3,0 C 14,1 C 11,3 km/h (2 Bft)
20.09.2019 10:24 10,1 C 16,7 C 15,0 C 15,0 C 66 % 62 cb 22 cb 1027,8 hPa 0,0 l/m 4,3 km/h (1 Bft) N 11 60 min 0 min 0,178 mm 500 W/m 4,0 C 10,1 C 8,0 km/h (2 Bft)
20.09.2019 09:24 7,1 C 16,7 C 12,2 C 12,2 C 73 % 61 cb 22 cb 1027,8 hPa 0,0 l/m 4,3 km/h (1 Bft) N-NW 330 60 min 0 min 0,076 mm 361 W/m 2,6 C 7,1 C 8,0 km/h (2 Bft)
20.09.2019 08:24 3,7 C 16,7 C 7,2 C 8,3 C 83 % 61 cb 21 cb 1027,7 hPa 0,0 l/m 1,3 km/h (1 Bft) S-SW 200 45 min 0 min 0,026 mm 194 W/m 1,1 C 3,7 C 3,2 km/h (1 Bft)
20.09.2019 07:24 2,0 C 17,2 C 3,9 C 2,2 C 85 % 61 cb 21 cb 1027,6 hPa 0,0 l/m 0,2 km/h (0 Bft) S-SW 198 0 min 0 min 0,000 mm 13 W/m -0,3 C 2,0 C 1,6 km/h (1 Bft)
20.09.2019 06:24 2,8 C 17,2 C 5,0 C 2,8 C 83 % 61 cb 21 cb 1027,2 hPa 0,0 l/m 0,0 km/h (0 Bft) S-SW 205 0 min 0 min 0,025 mm 0 W/m 0,2 C 2,8 C 0,0 km/h (0 Bft)
20.09.2019 05:24 4,6 C 17,2 C 5,6 C 5,0 C 75 % 61 cb 21 cb 1027,3 hPa 0,0 l/m 6,1 km/h (2 Bft) W-NW 284 0 min 0 min 0,025 mm 0 W/m 0,6 C 3,2 C 9,7 km/h (2 Bft)
20.09.2019 04:24 7,1 C 17,8 C 7,2 C 6,7 C 68 % 60 cb 22 cb 1027,2 hPa 0,0 l/m 4,5 km/h (1 Bft) W-NW 297 0 min 0 min 0,026 mm 0 W/m 1,6 C 7,1 C 6,4 km/h (2 Bft)
20.09.2019 03:24 8,1 C 17,8 C 7,8 C 7,8 C 63 % 60 cb 22 cb 1027,6 hPa 0,0 l/m 4,9 km/h (1 Bft) NO 56 0 min 0 min 0,025 mm 0 W/m 1,5 C 7,6 C 14,5 km/h (3 Bft)
20.09.2019 02:24 7,8 C 17,8 C 7,8 C 7,2 C 66 % 60 cb 22 cb 1028,2 hPa 0,0 l/m 6,0 km/h (2 Bft) O 81 0 min 0 min 0,026 mm 0 W/m 1,9 C 6,9 C 14,5 km/h (3 Bft)
20.09.2019 01:24 6,9 C 17,8 C 7,2 C 6,7 C 68 % 59 cb 22 cb 1028,2 hPa 0,0 l/m 2,0 km/h (1 Bft) NW 317 0 min 0 min 0,025 mm 0 W/m 1,4 C 6,9 C 4,8 km/h (1 Bft)
20.09.2019 00:24 7,2 C 18,3 C 7,2 C 6,1 C 68 % 59 cb 22 cb 1028,5 hPa 0,0 l/m 0,1 km/h (0 Bft) N 360 0 min 0 min 0,000 mm 0 W/m 1,7 C 7,2 C 1,6 km/h (1 Bft)
20.09.2019 00:00 7,2 C 18,3 C 7,2 C 6,1 C 68 % 59 cb 22 cb 1028,5 hPa 0,0 l/m 0,7 km/h (0 Bft) O-SO 109 0 min 0 min 0,000 mm 0 W/m 1,7 C 7,2 C 3,2 km/h (1 Bft)
_ Min-Zeit 07:27 08:15 07:03 06:39 15:51 00:00 11:39 18:48 - 00:30 - - - - - - 07:24 07:27 05:45
Minimum _ 1,9 C 16,7 C 3,9 C 2,2 C 33 % 59 cb 20 cb 1024,8 hPa - 0,0 km/h (0 Bft) - - - - - - -0,3 C 1,9 C 0,0 km/h (0 Bft)
_ Max-Zeit 15:21 00:00 15:21 15:24 07:39 07:54 16:12 00:00 00:00 12:33 - - 07:42 00:00 13:03 13:27 13:27 15:21 12:27
Maximum _ 17,6 C 18,3 C 22,8 C 20,0 C 87 % 62 cb 28 cb 1028,5 hPa 0,0 l/m 16,1 km/h
NO (3 Bft)
- - 3 min 0 min 0,407 mm 728 W/m 5,0 C 17,6 C 24,1 km/h
NO (4 Bft)
Durchschnitt _ 10,5 C 17,2 C 12,4 C 11,8 C 59 % 61 cb 23 cb 1026,9 hPa #0,0 l/m 4,9 km/h (1 Bft) NO - #10:48 h #0 min. #3,277 mm 396 W/m 2,0 C 10,4 C 9,7 km/h (2 Bft)